Time;durP1;ratioP1;P1;durP2;ratioP2;P2;SDS_P1;SDS_P2;PMS_P1;PMS_P2;Temp;Humidity;BMP_temperature;BMP_pressure;BME280_temperature;BME280_humidity;BME280_pressure;Samples;Min_cycle;Max_cycle;Signal;HPM_P1;HPM_P2
2022/06/29 00:04:55;;;;;;;5.03;2.90;;;17.40;99.90;;;;;;10399659;28;20201;-78
2022/06/29 00:10:18;;;;;;;3.28;2.65;;;17.30;99.90;;;;;;10390929;28;20220;-78
2022/06/29 00:15:39;;;;;;;3.38;2.65;;;17.30;99.90;;;;;;10359213;28;20251;-80
2022/06/29 00:21:01;;;;;;;4.03;2.60;;;17.20;99.90;;;;;;10371340;28;20484;-79
2022/06/29 00:26:22;;;;;;;4.75;2.83;;;17.30;99.90;;;;;;10399529;28;20240;-78
2022/06/29 00:31:44;;;;;;;7.13;3.30;;;17.30;99.90;;;;;;10399504;28;20202;-78
2022/06/29 00:37:05;;;;;;;5.13;3.03;;;17.20;99.90;;;;;;10398203;28;20221;-79
2022/06/29 00:42:26;;;;;;;7.20;3.63;;;17.20;99.90;;;;;;10398455;28;20204;-79
2022/06/29 00:47:48;;;;;;;6.78;3.00;;;17.20;99.90;;;;;;10398661;28;20202;-78
2022/06/29 00:53:13;;;;;;;5.00;3.10;;;17.30;99.90;;;;;;10398172;28;20217;-78
2022/06/29 00:58:35;;;;;;;5.03;3.00;;;17.30;99.90;;;;;;10417247;28;20189;-77
2022/06/29 01:03:57;;;;;;;8.25;4.43;;;17.30;99.90;;;;;;10397277;28;20206;-78
2022/06/29 01:09:19;;;;;;;4.55;3.47;;;17.30;99.90;;;;;;10393910;28;20214;-77
2022/06/29 01:14:42;;;;;;;5.93;3.80;;;17.30;99.90;;;;;;10389970;28;20251;-77
2022/06/29 01:20:04;;;;;;;6.57;3.28;;;17.30;99.90;;;;;;10397097;28;20188;-77
2022/06/29 01:25:25;;;;;;;5.25;3.85;;;17.30;99.90;;;;;;10396830;28;20192;-81
2022/06/29 01:30:46;;;;;;;5.78;4.32;;;17.30;99.90;;;;;;10382071;28;20197;-77
2022/06/29 01:36:08;;;;;;;4.47;3.38;;;17.30;99.90;;;;;;10397122;28;20267;-76
2022/06/29 01:41:29;;;;;;;4.72;3.65;;;17.40;99.90;;;;;;10355576;28;20404;-83
2022/06/29 01:46:50;;;;;;;4.82;3.40;;;17.40;99.90;;;;;;10362156;28;20594;-79
2022/06/29 01:52:12;;;;;;;4.15;3.00;;;17.40;99.90;;;;;;10395690;28;20202;-79
2022/06/29 01:57:33;;;;;;;6.40;4.43;;;17.40;99.90;;;;;;10407328;28;20220;-77
2022/06/29 02:02:55;;;;;;;9.60;4.43;;;17.30;99.90;;;;;;10396397;28;20197;-78
2022/06/29 02:08:16;;;;;;;6.72;4.22;;;17.30;99.90;;;;;;10394629;28;20387;-78
2022/06/29 02:13:38;;;;;;;7.18;4.82;;;17.30;99.90;;;;;;10395642;28;20207;-78
2022/06/29 02:18:59;;;;;;;4.60;4.00;;;17.30;99.90;;;;;;10395548;28;20204;-77
2022/06/29 02:24:21;;;;;;;5.25;3.80;;;17.30;99.90;;;;;;10394706;28;20232;-79
2022/06/29 02:29:42;;;;;;;5.00;3.67;;;17.40;99.90;;;;;;10394019;28;20207;-77
2022/06/29 02:35:04;;;;;;;6.55;3.83;;;17.30;99.90;;;;;;10380575;28;20301;-79
2022/06/29 02:40:25;;;;;;;7.40;4.72;;;17.40;99.90;;;;;;10395371;28;20349;-81
2022/06/29 02:45:47;;;;;;;7.70;4.90;;;17.30;99.90;;;;;;10367633;28;20201;-78
2022/06/29 02:51:09;;;;;;;5.97;4.57;;;17.20;99.90;;;;;;10395291;28;20548;-80
2022/06/29 02:56:30;;;;;;;9.88;5.55;;;17.20;99.90;;;;;;10408980;28;20251;-83
2022/06/29 03:01:53;;;;;;;7.03;4.95;;;17.10;99.90;;;;;;10395118;28;20235;-80
2022/06/29 03:07:14;;;;;;;7.20;5.97;;;17.20;99.90;;;;;;10386802;28;20212;-79
2022/06/29 03:12:35;;;;;;;6.20;4.40;;;17.20;99.90;;;;;;10384881;28;20203;-78
2022/06/29 03:17:57;;;;;;;6.10;4.55;;;17.20;99.90;;;;;;10393176;28;20260;-78
2022/06/29 03:23:18;;;;;;;5.72;4.13;;;17.20;99.90;;;;;;10394375;28;20224;-78
2022/06/29 03:28:40;;;;;;;6.50;4.03;;;17.10;99.90;;;;;;10394166;28;20196;-77
2022/06/29 03:34:02;;;;;;;5.07;4.13;;;17.10;99.90;;;;;;10394603;28;20213;-79
2022/06/29 03:39:23;;;;;;;5.55;4.38;;;17.20;99.90;;;;;;10379133;28;20239;-77
2022/06/29 03:44:45;;;;;;;5.50;3.58;;;17.30;99.90;;;;;;10395017;28;20195;-78
2022/06/29 03:50:08;;;;;;;5.13;3.88;;;17.50;99.90;;;;;;10399926;28;20197;-82
2022/06/29 03:55:29;;;;;;;5.53;4.32;;;17.60;99.90;;;;;;10406965;28;20227;-80
2022/06/29 04:00:51;;;;;;;4.45;3.67;;;17.60;99.90;;;;;;10408971;28;20693;-78
2022/06/29 04:06:13;;;;;;;4.18;3.15;;;17.50;98.80;;;;;;10394553;28;20209;-77
2022/06/29 04:11:52;;;;;;;4.43;3.65;;;17.60;93.50;;;;;;10397457;28;20207;-81
2022/06/29 04:17:13;;;;;;;4.30;3.50;;;17.70;83.70;;;;;;10399814;28;20217;-79
2022/06/29 04:22:35;;;;;;;4.63;3.30;;;17.70;90.60;;;;;;10398475;28;20457;-82
2022/06/29 04:27:57;;;;;;;5.18;3.90;;;17.60;93.40;;;;;;10398657;28;20280;-78
2022/06/29 04:33:18;;;;;;;7.43;3.50;;;17.70;71.30;;;;;;10399385;28;20189;-78
2022/06/29 04:38:40;;;;;;;5.50;3.47;;;17.70;79.40;;;;;;10398962;28;20224;-78
2022/06/29 04:44:01;;;;;;;5.43;3.58;;;17.70;83.00;;;;;;10399451;28;20188;-78
2022/06/29 04:49:23;;;;;;;5.15;3.85;;;17.70;81.50;;;;;;10397733;28;20259;-78
2022/06/29 04:54:44;;;;;;;4.40;3.33;;;17.90;70.20;;;;;;10411835;28;20464;-78
2022/06/29 05:00:06;;;;;;;4.28;3.42;;;17.90;75.40;;;;;;10383085;28;20194;-78
2022/06/29 05:05:28;;;;;;;4.93;3.33;;;18.00;62.40;;;;;;10406186;28;20268;-77
2022/06/29 05:10:49;;;;;;;4.70;3.97;;;18.20;50.30;;;;;;10386926;28;20200;-77
2022/06/29 05:16:11;;;;;;;5.10;3.58;;;18.20;27.30;;;;;;10396523;28;20232;-77
2022/06/29 05:21:32;;;;;;;6.50;3.78;;;18.20;21.20;;;;;;10395788;28;20491;-78
2022/06/29 05:26:53;;;;;;;4.97;3.55;;;18.10;15.00;;;;;;10397529;28;20193;-78
2022/06/29 05:32:15;;;;;;;4.55;3.00;;;18.10;16.20;;;;;;10397736;28;20484;-77
2022/06/29 05:37:37;;;;;;;4.95;3.22;;;18.20;20.60;;;;;;10396716;28;20228;-78
2022/06/29 05:42:58;;;;;;;6.13;3.35;;;18.40;14.80;;;;;;10397099;28;20196;-78
2022/06/29 05:48:19;;;;;;;5.13;3.20;;;18.50;8.80;;;;;;10395263;28;20209;-77
2022/06/29 05:53:40;;;;;;;4.32;3.00;;;18.60;1.00;;;;;;10396621;28;20193;-78
2022/06/29 05:59:02;;;;;;;3.70;2.80;;;18.70;1.00;;;;;;10416309;28;20515;-78
2022/06/29 06:04:24;;;;;;;5.93;3.28;;;18.90;1.00;;;;;;10368141;28;20197;-78
2022/06/29 06:09:45;;;;;;;9.48;3.00;;;19.10;1.00;;;;;;10371091;28;20268;-79
2022/06/29 06:15:07;;;;;;;6.28;3.40;;;19.30;1.00;;;;;;10391463;28;20473;-78
2022/06/29 06:20:29;;;;;;;3.47;2.55;;;19.60;1.00;;;;;;10394828;28;20232;-77
2022/06/29 06:25:50;;;;;;;4.30;2.90;;;19.80;1.00;;;;;;10395612;28;20272;-78
2022/06/29 06:31:11;;;;;;;3.65;2.70;;;20.00;1.00;;;;;;10394755;28;20235;-77
2022/06/29 06:36:32;;;;;;;4.03;2.97;;;20.30;1.00;;;;;;10393965;28;20232;-78
2022/06/29 06:41:54;;;;;;;4.10;2.95;;;20.70;1.00;;;;;;10394080;28;20440;-79
2022/06/29 06:47:15;;;;;;;4.45;2.03;;;21.40;1.00;;;;;;10393780;28;20208;-79
2022/06/29 06:52:37;;;;;;;4.78;2.78;;;;;;;;;;10394935;28;20193;-79
2022/06/29 06:57:58;;;;;;;3.53;2.50;;;22.00;1.00;;;;;;10418385;28;20231;-78
2022/06/29 07:03:19;;;;;;;6.07;2.80;;;22.60;1.00;;;;;;10396393;28;20196;-79
2022/06/29 07:08:40;;;;;;;4.10;2.95;;;23.60;1.00;;;;;;10376244;28;20193;-77
2022/06/29 07:14:02;;;;;;;3.95;2.63;;;24.00;1.00;;;;;;10366726;28;20202;-78
2022/06/29 07:19:23;;;;;;;1.70;1.60;;;24.50;1.00;;;;;;10366673;28;20240;-77
2022/06/29 07:24:45;;;;;;;4.32;2.28;;;24.70;1.00;;;;;;10365555;28;20260;-83
2022/06/29 07:30:06;;;;;;;12.32;6.05;;;24.20;1.00;;;;;;10395370;28;20200;-78
2022/06/29 07:35:28;;;;;;;7.47;4.32;;;25.20;1.00;;;;;;10381027;28;20550;-78
2022/06/29 07:40:49;;;;;;;5.00;3.45;;;25.40;1.00;;;;;;10395819;28;20515;-77
2022/06/29 07:46:10;;;;;;;3.97;2.80;;;26.20;99.90;;;;;;10395876;28;20227;-77
2022/06/29 07:51:32;;;;;;;4.40;2.53;;;25.80;99.90;;;;;;10394445;28;20265;-78
2022/06/29 07:56:53;;;;;;;4.57;2.90;;;24.90;99.90;;;;;;10397848;28;20228;-80
2022/06/29 08:02:34;;;;;;;3.35;1.90;;;25.00;26.50;;;;;;10398246;28;20438;-82
2022/06/29 08:07:55;;;;;;;7.57;4.00;;;26.20;1.00;;;;;;10376252;28;20256;-80
2022/06/29 08:13:17;;;;;;;5.03;2.95;;;27.20;99.90;;;;;;10385200;28;20453;-81
2022/06/29 08:18:38;;;;;;;9.90;4.25;;;27.80;1.00;;;;;;10379673;28;20410;-77
2022/06/29 08:24:00;;;;;;;7.88;6.43;;;27.70;1.00;;;;;;10391891;28;20555;-79
2022/06/29 08:29:21;;;;;;;5.47;2.53;;;27.80;99.90;;;;;;10393226;28;20213;-79
2022/06/29 08:34:42;;;;;;;4.03;2.97;;;28.60;99.90;;;;;;10393598;28;20391;-81
2022/06/29 08:40:09;;;;;;;10.13;2.80;;;29.20;1.00;;;;;;10392611;28;20201;-79
2022/06/29 08:45:31;;;;;;;4.07;1.75;;;29.50;1.00;;;;;;10393006;28;20375;-82
2022/06/29 08:50:54;;;;;;;4.30;2.00;;;29.70;1.00;;;;;;10378824;28;20519;-81
2022/06/29 08:56:17;;;;;;;7.63;2.65;;;28.60;1.00;;;;;;10393701;28;20239;-80
2022/06/29 09:01:39;;;;;;;2.03;1.65;;;27.40;99.90;;;;;;10384218;28;20193;-80
2022/06/29 09:07:00;;;;;;;79.50;12.45;;;26.50;1.00;;;;;;10381303;28;20271;-79
2022/06/29 09:12:22;;;;;;;23.05;4.25;;;26.60;1.00;;;;;;10382642;28;20386;-78
2022/06/29 09:17:43;;;;;;;20.20;5.68;;;27.80;1.00;;;;;;10377527;28;20235;-81
2022/06/29 09:23:07;;;;;;;13.02;4.57;;;28.60;1.00;;;;;;10391912;28;20232;-79
2022/06/29 09:28:31;;;;;;;7.07;2.22;;;28.50;1.00;;;;;;10377150;28;20216;-81
2022/06/29 09:33:53;;;;;;;4.00;2.00;;;28.30;1.00;;;;;;10363416;28;20296;-80
2022/06/29 09:39:32;;;;;;;4.35;1.95;;;27.40;1.00;;;;;;10391321;28;20385;-80
2022/06/29 09:44:54;;;;;;;8.20;2.05;;;27.20;1.00;;;;;;10392789;28;20204;-81
2022/06/29 09:50:15;;;;;;;5.20;1.90;;;28.00;1.00;;;;;;10403540;28;20271;-81
2022/06/29 09:55:37;;;;;;;2.50;1.90;;;28.50;1.00;;;;;;10396599;28;20228;-79
2022/06/29 10:06:43;;;;;;;3.53;1.67;;;29.80;1.00;;;;;;10381699;28;20232;-75
2022/06/29 10:18:06;;;;;;;6.13;2.85;;;28.00;1.00;;;;;;10387947;28;20224;-77
2022/06/29 10:23:50;;;;;;;4.93;2.70;;;27.30;1.00;;;;;;10389937;28;20429;-74
2022/06/29 10:29:23;;;;;;;2.63;1.83;;;27.20;1.00;;;;;;10390032;28;20268;-75
2022/06/29 10:35:28;;;;;;;25.98;3.15;;;28.10;1.00;;;;;;10390587;28;20488;-76
2022/06/29 10:40:30;;;;;;;3.00;1.77;;;28.60;1.00;;;;;;10386063;28;20531;-76
2022/06/29 10:45:55;;;;;;;1.98;1.50;;;28.30;1.00;;;;;;10387408;28;20199;-74
2022/06/29 10:51:16;;;;;;;3.33;2.70;;;27.80;1.00;;;;;;10358386;28;20193;-74
2022/06/29 10:56:40;;;;;;;1.65;1.52;;;28.60;1.00;;;;;;10401017;28;20296;-74
2022/06/29 11:02:08;;;;;;;4.65;2.00;;;29.70;99.90;;;;;;10397555;28;20197;-74
2022/06/29 11:13:19;;;;;;;1.92;1.77;;;31.00;99.90;;;;;;10386176;28;20404;-74
2022/06/29 11:18:40;;;;;;;3.83;2.10;;;30.90;99.90;;;;;;10395056;28;20290;-74
2022/06/29 11:24:04;;;;;;;3.72;1.70;;;30.10;99.90;;;;;;10394912;28;20263;-74
2022/06/29 11:29:30;;;;;;;2.45;1.65;;;29.10;99.90;;;;;;10391500;28;20268;-80
2022/06/29 11:34:58;;;;;;;1.60;1.50;;;28.40;99.90;;;;;;10396788;28;20465;-75
2022/06/29 11:40:41;;;;;;;4.20;2.30;;;28.30;99.90;;;;;;10395532;28;20205;-80
2022/06/29 11:46:03;;;;;;;4.65;2.30;;;28.90;99.90;;;;;;10394628;28;20184;-80
2022/06/29 11:51:27;;;;;;;2.47;1.65;;;29.30;99.90;;;;;;10390538;28;20201;-77
2022/06/29 11:56:50;;;;;;;6.63;3.17;;;28.80;99.90;;;;;;10409820;28;20449;-79
2022/06/29 12:02:14;;;;;;;3.20;2.55;;;28.70;99.90;;;;;;10380786;28;20682;-74
2022/06/29 12:07:35;;;;;;;2.30;1.60;;;28.80;99.90;;;;;;10404534;28;20392;-74
2022/06/29 12:12:57;;;;;;;3.55;1.98;;;29.00;99.90;;;;;;10393769;28;20189;-74
2022/06/29 12:18:39;;;;;;;2.53;1.67;;;29.10;99.90;;;;;;10394350;28;20634;-74
2022/06/29 12:24:01;;;;;;;3.40;1.63;;;29.00;99.90;;;;;;10393317;28;20232;-75
2022/06/29 12:29:25;;;;;;;1.75;1.65;;;28.70;99.90;;;;;;10392370;28;20193;-75
2022/06/29 12:34:49;;;;;;;1.70;1.60;;;28.30;99.90;;;;;;10395122;28;20194;-81
2022/06/29 12:40:11;;;;;;;2.72;1.75;;;28.10;99.90;;;;;;10386544;28;20272;-80
2022/06/29 12:45:33;;;;;;;4.35;2.03;;;28.20;99.90;;;;;;10395750;28;20201;-85
2022/06/29 12:50:55;;;;;;;2.63;1.80;;;28.70;99.90;;;;;;10371968;28;20220;-77
2022/06/29 12:56:17;;;;;;;2.15;1.60;;;28.90;99.90;;;;;;10396996;28;20240;-79
2022/06/29 13:01:41;;;;;;;2.25;1.70;;;28.80;99.90;;;;;;10393260;28;20196;-74
2022/06/29 13:07:03;;;;;;;1.88;1.52;;;28.90;99.90;;;;;;10392256;28;20188;-82
2022/06/29 13:12:25;;;;;;;3.13;2.08;;;29.10;99.90;;;;;;10393909;28;20247;-79
2022/06/29 13:17:47;;;;;;;3.90;2.20;;;29.00;99.90;;;;;;10389281;28;20268;-75
2022/06/29 13:23:08;;;;;;;1.98;1.52;;;28.70;99.90;;;;;;10390566;28;20292;-73
2022/06/29 13:28:31;;;;;;;5.38;1.98;;;28.40;99.90;;;;;;10392223;28;20308;-76
2022/06/29 13:33:54;;;;;;;1.77;1.40;;;28.20;99.90;;;;;;10390997;28;20197;-76
2022/06/29 13:39:15;;;;;;;2.38;1.70;;;28.20;99.90;;;;;;10390976;28;20232;-79
2022/06/29 13:44:37;;;;;;;3.08;2.05;;;28.30;99.90;;;;;;10391890;28;20188;-78
2022/06/29 13:49:59;;;;;;;1.55;1.40;;;28.50;99.90;;;;;;10378000;28;20204;-78
2022/06/29 13:55:21;;;;;;;2.17;1.60;;;28.30;99.90;;;;;;10379337;28;20202;-75
2022/06/29 14:00:43;;;;;;;5.55;1.98;;;28.30;99.90;;;;;;10410553;28;20208;-89
2022/06/29 14:06:05;;;;;;;3.50;1.80;;;28.10;99.90;;;;;;10388536;28;20185;-79
2022/06/29 14:11:26;;;;;;;2.42;1.63;;;28.20;99.90;;;;;;10392207;28;20308;-82
2022/06/29 14:16:48;;;;;;;2.47;1.80;;;28.10;99.90;;;;;;10391681;28;20259;-84
2022/06/29 14:22:10;;;;;;;1.95;1.55;;;27.80;99.90;;;;;;10389250;28;20573;-80
2022/06/29 14:27:31;;;;;;;2.33;1.60;;;28.10;99.90;;;;;;10388406;28;20292;-82
2022/06/29 14:32:53;;;;;;;2.47;1.77;;;28.40;99.90;;;;;;10388538;28;20416;-82
2022/06/29 14:38:15;;;;;;;2.10;1.60;;;28.50;99.90;;;;;;10388845;28;20217;-84
2022/06/29 14:43:37;;;;;;;7.22;2.55;;;28.60;99.90;;;;;;10389967;28;20193;-76
2022/06/29 14:48:59;;;;;;;2.35;1.85;;;28.70;99.90;;;;;;10354661;28;20258;-83
2022/06/29 14:54:22;;;;;;;4.88;2.92;;;28.70;99.90;;;;;;10379773;28;20260;-85
2022/06/29 14:59:44;;;;;;;4.00;2.17;;;28.80;99.90;;;;;;10366789;28;20249;-77
2022/06/29 15:05:06;;;;;;;3.67;2.35;;;28.70;99.90;;;;;;10388549;28;20196;-83
2022/06/29 15:10:30;;;;;;;4.60;2.05;;;28.20;1.00;;;;;;10393055;28;20197;-77
2022/06/29 15:15:52;;;;;;;2.75;2.20;;;27.80;1.00;;;;;;10392350;28;20241;-77
2022/06/29 15:21:15;;;;;;;4.50;2.53;;;27.40;1.00;;;;;;10391878;28;20798;-76
2022/06/29 15:26:41;;;;;;;2.75;2.17;;;27.10;1.00;;;;;;10388684;28;20209;-75
2022/06/29 15:32:04;;;;;;;3.20;2.33;;;26.80;1.00;;;;;;10381926;28;20511;-76
2022/06/29 15:43:05;;;;;;;4.30;2.40;;;26.50;99.90;;;;;;10397533;28;20361;-77
2022/06/29 15:48:27;;;;;;;3.47;2.05;;;26.30;99.90;;;;;;10360314;28;20221;-76
2022/06/29 15:59:28;;;;;;;3.40;2.33;;;26.00;1.00;;;;;;10438437;28;20255;-76
2022/06/29 16:04:49;;;;;;;3.10;2.80;;;25.80;99.90;;;;;;10414802;28;20189;-82
2022/06/29 16:10:11;;;;;;;3.30;2.65;;;25.50;1.00;;;;;;10400339;28;20210;-77
2022/06/29 16:15:32;;;;;;;4.35;2.92;;;25.30;1.00;;;;;;10399649;28;20342;-79
2022/06/29 16:20:54;;;;;;;3.03;2.72;;;25.30;99.90;;;;;;10400137;28;20456;-81
2022/06/29 16:26:15;;;;;;;4.10;3.33;;;25.30;1.00;;;;;;10398973;28;20235;-82
2022/06/29 16:31:37;;;;;;;4.50;2.67;;;25.40;1.00;;;;;;10399116;28;20562;-77
2022/06/29 16:36:59;;;;;;;3.15;2.88;;;25.40;99.90;;;;;;10400255;28;20512;-79
2022/06/29 16:42:20;;;;;;;4.70;3.00;;;25.30;99.90;;;;;;10403249;28;20297;-82
2022/06/29 16:47:42;;;;;;;2.80;2.50;;;25.20;1.00;;;;;;10371673;23;20295;-76
2022/06/29 16:53:03;;;;;;;5.00;3.20;;;25.30;1.00;;;;;;10357244;28;20421;-76
2022/06/29 16:58:24;;;;;;;3.80;2.72;;;25.40;44.50;;;;;;10372944;28;20229;-76
2022/06/29 17:03:47;;;;;;;3.30;2.65;;;25.30;99.90;;;;;;10380997;28;20189;-78
2022/06/29 17:09:10;;;;;;;7.03;2.95;;;25.20;99.90;;;;;;10358016;28;20201;-77
2022/06/29 17:14:31;;;;;;;4.93;2.83;;;;;;;;;;10357918;28;20274;-76
2022/06/29 17:19:53;;;;;;;7.35;3.03;;;24.60;99.90;;;;;;10357072;28;20292;-80
2022/06/29 17:25:18;;;;;;;4.25;2.80;;;24.40;99.90;;;;;;10357596;28;20190;-79
2022/06/29 17:30:40;;;;;;;10.48;3.47;;;24.20;1.00;;;;;;10356906;28;20437;-83
2022/06/29 17:36:02;;;;;;;7.68;3.50;;;24.00;99.90;;;;;;10356949;28;20210;-83
2022/06/29 17:41:23;;;;;;;5.75;4.13;;;23.80;99.90;;;;;;10357946;28;20197;-76
2022/06/29 17:46:47;;;;;;;4.35;3.58;;;23.70;1.00;;;;;;10356875;28;20309;-81
2022/06/29 17:52:08;;;;;;;7.75;3.78;;;23.60;1.00;;;;;;10356529;28;20271;-77
2022/06/29 17:57:30;;;;;;;6.68;4.10;;;23.50;1.00;;;;;;10375823;28;20262;-81
2022/06/29 18:02:52;;;;;;;4.55;3.22;;;23.30;1.00;;;;;;10396554;28;20389;-81
2022/06/29 18:08:14;;;;;;;5.40;3.65;;;23.30;1.00;;;;;;10344611;28;20365;-85
2022/06/29 18:13:35;;;;;;;5.93;4.00;;;23.30;1.00;;;;;;10354861;28;20190;-83
2022/06/29 18:18:59;;;;;;;5.07;3.72;;;23.30;1.00;;;;;;10355906;28;20260;-82
2022/06/29 18:24:21;;;;;;;6.80;3.55;;;23.30;1.00;;;;;;10355574;28;20194;-85
2022/06/29 18:29:45;;;;;;;7.10;3.55;;;23.20;1.00;;;;;;10366932;28;20756;-85
2022/06/29 18:35:07;;;;;;;8.77;4.45;;;23.20;1.00;;;;;;10355366;28;20186;-77
2022/06/29 18:40:28;;;;;;;4.80;3.20;;;23.10;1.00;;;;;;10357863;28;20228;-79
2022/06/29 18:45:50;;;;;;;4.80;3.55;;;23.10;1.00;;;;;;10355195;28;20268;-84
2022/06/29 18:51:12;;;;;;;4.90;3.63;;;23.10;1.00;;;;;;10354059;28;20225;-78
2022/06/29 18:56:33;;;;;;;3.50;2.95;;;23.00;1.00;;;;;;10369058;28;20400;-78
2022/06/29 19:01:55;;;;;;;7.38;3.63;;;23.00;1.00;;;;;;10314768;28;20225;-85
2022/06/29 19:07:16;;;;;;;5.60;3.80;;;22.90;1.00;;;;;;10316479;28;20217;-84
2022/06/29 19:12:38;;;;;;;6.70;3.90;;;22.70;1.00;;;;;;10353411;28;20198;-81
2022/06/29 19:17:59;;;;;;;10.52;4.82;;;22.60;1.00;;;;;;10345444;28;20232;-80
2022/06/29 19:23:21;;;;;;;14.93;5.18;;;22.50;1.00;;;;;;10354781;28;20189;-80
2022/06/29 19:28:43;;;;;;;9.85;4.53;;;22.50;1.00;;;;;;10361487;28;20198;-80
2022/06/29 19:34:07;;;;;;;6.25;3.67;;;22.50;1.00;;;;;;10361538;28;20198;-85
2022/06/29 19:39:28;;;;;;;5.72;4.20;;;22.30;1.00;;;;;;10361333;28;20405;-84
2022/06/29 19:44:50;;;;;;;5.60;3.80;;;22.30;1.00;;;;;;10361287;28;20305;-82
2022/06/29 19:50:12;;;;;;;7.00;4.40;;;22.10;1.00;;;;;;10359495;28;20229;-85
2022/06/29 19:55:34;;;;;;;6.90;3.80;;;22.10;1.00;;;;;;10366884;28;20512;-79
2022/06/29 20:01:12;;;;;;;6.55;3.83;;;22.00;1.00;;;;;;10413356;28;20478;-81
2022/06/29 20:06:34;;;;;;;5.45;3.28;;;22.00;1.00;;;;;;10382373;28;20245;-83
2022/06/29 20:11:55;;;;;;;5.55;3.78;;;21.90;1.00;;;;;;10359401;28;20265;-76
2022/06/29 20:17:16;;;;;;;6.97;3.72;;;21.80;1.00;;;;;;10359783;28;20221;-83
2022/06/29 20:22:38;;;;;;;5.88;3.67;;;21.70;1.00;;;;;;10360299;28;20197;-79
2022/06/29 20:28:00;;;;;;;10.30;3.50;;;21.60;1.00;;;;;;10360602;28;20197;-77
2022/06/29 20:33:22;;;;;;;9.25;4.20;;;21.60;1.00;;;;;;10357958;28;20257;-79
2022/06/29 20:38:44;;;;;;;7.97;4.78;;;21.50;1.00;;;;;;10359822;28;20221;-77
2022/06/29 20:49:45;;;;;;;6.60;3.95;;;21.30;1.00;;;;;;10358732;28;20190;-77
2022/06/29 20:55:06;;;;;;;5.80;4.15;;;21.10;1.00;;;;;;10361112;28;20481;-77
2022/06/29 21:00:28;;;;;;;4.68;4.15;;;21.00;1.00;;;;;;10399119;28;20221;-77
2022/06/29 21:05:50;;;;;;;6.07;4.15;;;20.90;1.00;;;;;;10377826;28;20196;-83
2022/06/29 21:11:12;;;;;;;6.43;4.40;;;20.70;12.40;;;;;;10356953;28;20252;-80
2022/06/29 21:16:33;;;;;;;5.72;4.10;;;20.70;10.90;;;;;;10355961;28;20233;-77
2022/06/29 21:21:55;;;;;;;5.38;4.35;;;;;;;;;;10356394;28;20232;-84
2022/06/29 21:27:17;;;;;;;7.28;4.38;;;20.50;20.50;;;;;;10355823;28;20485;-84
2022/06/29 21:32:38;;;;;;;5.20;4.35;;;20.40;20.90;;;;;;10317865;28;20294;-80
2022/06/29 21:38:00;;;;;;;5.88;3.97;;;20.30;16.00;;;;;;10353264;28;20231;-76
2022/06/29 21:43:21;;;;;;;9.60;4.53;;;20.20;23.90;;;;;;10356683;28;20196;-79
2022/06/29 21:54:24;;;;;;;6.90;4.25;;;20.20;21.50;;;;;;10324067;28;20189;-85
2022/06/29 21:59:45;;;;;;;6.93;4.13;;;20.10;29.10;;;;;;10382198;28;20232;-83
2022/06/29 22:05:10;;;;;;;5.80;3.75;;;19.90;38.30;;;;;;10368251;28;20386;-84
2022/06/29 22:10:32;;;;;;;6.63;4.30;;;19.90;37.50;;;;;;10355629;28;20193;-79
2022/06/29 22:15:53;;;;;;;4.32;3.58;;;19.90;40.00;;;;;;10354593;28;20386;-85
2022/06/29 22:21:20;;;;;;;4.20;3.33;;;19.90;30.00;;;;;;10341478;28;20198;-84
2022/06/29 22:26:41;;;;;;;10.23;3.83;;;19.80;23.30;;;;;;10355415;28;20244;-84
2022/06/29 22:32:03;;;;;;;3.85;3.17;;;19.70;27.40;;;;;;10354811;28;20198;-85
2022/06/29 22:37:25;;;;;;;4.95;3.53;;;19.70;28.40;;;;;;10355075;28;20213;-79
2022/06/29 22:42:46;;;;;;;5.25;3.08;;;19.60;27.90;;;;;;10340261;28;20396;-84
2022/06/29 22:48:08;;;;;;;3.83;3.30;;;19.50;33.50;;;;;;10353863;28;20610;-82
2022/06/29 22:53:29;;;;;;;7.25;3.97;;;19.50;36.10;;;;;;10361418;28;20235;-78
2022/06/29 22:58:50;;;;;;;4.90;3.97;;;19.40;45.10;;;;;;10395143;28;20232;-81
2022/06/29 23:04:12;;;;;;;4.90;3.85;;;19.30;50.00;;;;;;10389221;28;20197;-78
2022/06/29 23:09:33;;;;;;;6.45;3.95;;;19.30;52.00;;;;;;10322573;28;20194;-84
2022/06/29 23:14:55;;;;;;;4.57;4.13;;;19.30;46.50;;;;;;10334948;28;20191;-83
2022/06/29 23:20:17;;;;;;;6.95;3.53;;;19.20;43.40;;;;;;10322137;28;20397;-84
2022/06/29 23:25:39;;;;;;;7.10;3.53;;;19.20;39.50;;;;;;10354375;28;20194;-84
2022/06/29 23:31:00;;;;;;;9.05;4.55;;;19.20;45.40;;;;;;10361725;28;20198;-85
2022/06/29 23:36:22;;;;;;;6.75;3.90;;;19.30;38.80;;;;;;10361928;28;20201;-83
2022/06/29 23:41:43;;;;;;;6.88;3.63;;;19.20;43.30;;;;;;10360114;28;20579;-85
2022/06/29 23:47:05;;;;;;;3.65;3.13;;;19.20;45.80;;;;;;10361663;28;20241;-84
2022/06/29 23:52:26;;;;;;;4.70;3.05;;;19.20;46.50;;;;;;10361429;28;20233;-84
2022/06/29 23:57:48;;;;;;;6.05;3.55;;;19.10;46.50;;;;;;10370809;28;20228;-84
